Ashley Falls, Massachusetts
Current Conditions -  °F | °C
As of 3:54 AM on Wednesday 26 Nov 2014 (Local Time) from KPSF Reporting Station
Clear Clear  
Wind Chill: 29°   Ceiling: Unl
Heat Index: 35°   Visibility: 10mi
Dew Point: 27°   Wind: 7mph
Humidity: 72%   Direction: 320°NW
Pressure: 30.15"   Gusts: NA
Location:  42.06°N, 73.34°W
Report Text: KPSF 260854Z AUTO 32006KT 10SM CLR 02/M03 A3015 RMK AO2 SLP212 T00171028 50007
Loading
Personal Weather Stations






























Interactive Weather Map New forecast layout! Learn more

10-Day Weather Forecast

Advertisements
Track Severe Weather on mobile